Flight Track Log - Related Links

Times and Time Zones

All times are in EDT time to prevent confusion due to time zone crossing. See the ASQ5958 flight status page for this flight to view local times or setup timezone preferences in your user account.

Time Position Orientation Groundspeed Altitude Reporting Facility
EDT Latitude Longitude Course Direction KTS MPH feet Rate Location/Type
Thu 07:46:18 AM 42.2017 -83.3583 285° West 157 181 1,200  Level Cleveland Center
Thu 07:47:50 AM 42.1475 -83.4369 227° Southwest 224 258 3,900 1,714 Climbing Cleveland Center
Thu 07:48:45 AM 42.1083 -83.4997 230° Southwest 257 296 5,400 1,748 Climbing Cleveland Center
Thu 07:49:00 AM 42.2724 -83.5901 289° West  Level FlightAware Approximate
Thu 07:49:33 AM 42.0650 -83.5647 228° Southwest 276 318 6,900  Level Cleveland Center
Thu 07:50:00 AM 42.2880 -83.6614 283° West  Level FlightAware Approximate
Thu 07:50:33 AM 42.0986 -83.6392 301° West 282 325 8,700  Level Cleveland Center
Thu 07:51:00 AM 42.3019 -83.7428 285° West  Level FlightAware Approximate
Thu 07:51:33 AM 42.1564 -83.7344 309° West 288 331 10,400  Level Cleveland Center
Thu 07:52:33 AM 42.2061 -83.8239 307° West 307 353 11,400 1,050 Climbing Cleveland Center
Thu 07:53:33 AM 42.2656 -83.9250 308° West 326 375 12,500 1,250 Climbing Cleveland Center
Thu 07:54:33 AM 42.3253 -84.0236 309° West 340 391 13,900 1,400 Climbing Cleveland Center
Thu 07:55:33 AM 42.3847 -84.1253 308° West 340 391 15,300 1,200 Climbing Cleveland Center
Thu 07:56:33 AM 42.4292 -84.2375 298° West 340 391 16,300 950 Climbing Cleveland Center
Thu 07:57:33 AM 42.4311 -84.3756 271° West 336 387 17,200 1,016 Climbing Cleveland Center
Thu 07:58:37 AM 42.4375 -84.5208 273° West 365 420 18,400 1,000 Climbing Chicago Center
Thu 07:59:39 AM 42.4397 -84.6600 271° West 368 423 19,300 823 Climbing Chicago Center
Thu 08:00:41 AM 42.4436 -84.7992 272° West 371 427 20,100 581 Climbing Chicago Center
Thu 08:01:43 AM 42.4464 -84.9450 272° West 384 442 20,500 581 Climbing Chicago Center
Thu 08:02:45 AM 42.4492 -85.0947 271° West 396 456 21,300 871 Climbing Chicago Center
Thu 08:03:47 AM 42.4522 -85.2394 272° West 389 448 22,300 871 Climbing Chicago Center
Thu 08:04:49 AM 42.4556 -85.4147 272° West 387 445 23,100 581 Climbing Chicago Center
Thu 08:05:51 AM 42.4575 -85.5636 271° West 393 452 23,500 435 Climbing Chicago Center
Thu 08:06:53 AM 42.4597 -85.7114 271° West 393 452 24,000 242 Climbing Chicago Center
Thu 08:07:55 AM 42.4600 -85.8667 270° West 407 468 24,000  Level Chicago Center
Thu 08:08:58 AM 42.4597 -86.0250 270° West 417 480 24,000 -532 Level Chicago Center
Thu 08:09:59 AM 42.4592 -86.1850 270° West 423 487 22,900 -1,463 Descending Chicago Center
Thu 08:11:01 AM 42.4589 -86.3411 270° West 416 479 21,000 -2,256 Descending Chicago Center
Thu 08:12:04 AM 42.4589 -86.5200 270° West 397 457 18,200 -2,448 Descending Chicago Center
Thu 08:13:06 AM 42.4575 -86.6683 269° West 392 451 15,900 -2,081 Descending Chicago Center
Thu 08:14:08 AM 42.4592 -86.8128 271° West 388 447 13,900 -2,032 Descending Chicago Center
Thu 08:15:10 AM 42.4586 -86.9494 270° West 374 430 11,700 -1,839 Descending Chicago Center
Thu 08:16:12 AM 42.4550 -87.0836 268° West 362 417 10,100 -823 Descending Chicago Center
Thu 08:17:14 AM 42.4300 -87.2044 254° West 336 387 10,000 -629 Descending Chicago Center
Thu 08:18:16 AM 42.3978 -87.3236 250° West 288 331 8,800 -1,258 Descending Chicago Center
Thu 08:19:18 AM 42.3567 -87.4081 237° Southwest 288 331 7,400 -1,306 Descending Chicago Center
Thu 08:20:20 AM 42.2867 -87.4486 203° Southwest 282 325 6,100 -677 Descending Chicago Center
Thu 08:21:22 AM 42.2175 -87.4889 203° Southwest 275 316 6,000 -290 Descending Chicago Center
Thu 08:22:24 AM 42.1475 -87.5319 205° Southwest 277 319 5,500 -823 Descending Chicago Center
Thu 08:23:26 AM 42.0800 -87.5758 206° Southwest 274 315 4,300 -726 Descending Chicago Center
Thu 08:24:28 AM 42.0272 -87.6656 232° Southwest 261 300 4,000 -677 Descending Chicago Center
Thu 08:25:30 AM 42.0008 -87.7531 248° West 256 295 2,900 -1,065 Descending Chicago Center
Thu 08:26:32 AM 42.0031 -87.8242 272° West 212 244 1,800 -816 Descending Chicago Center
Thu 08:27:35 AM 42.0033 -87.8792 270° West 177 204 1,200 -571 Descending Chicago Center
Thu 08:29:00 AM 41.9817 -87.9067 206° Southwest  Level Estimated
Thu 08:36:00 AM 41.9817 -87.9067 206° Southwest  Level Estimated

Login

Don't have an account? Register now (free) for customized features, flight alerts, and more!